Time;durP1;ratioP1;P1;durP2;ratioP2;P2;SDS_P1;SDS_P2;PMS_P1;PMS_P2;Temp;Humidity;BMP_temperature;BMP_pressure;BME280_temperature;BME280_humidity;BME280_pressure;Samples;Min_cycle;Max_cycle;Signal;HPM_P1;HPM_P2
2022/08/13 00:00:09;;;;;;;7.47;3.40;;;;;;;19.12;51.33;101482.75;5071726;28;20111;-81
2022/08/13 00:02:36;;;;;;;9.13;3.20;;;;;;;19.10;52.06;101477.66;5073035;28;20445;-81
2022/08/13 00:05:05;;;;;;;3.72;2.97;;;;;;;19.06;52.64;101482.88;5073571;28;20100;-81
2022/08/13 00:07:31;;;;;;;4.32;3.17;;;;;;;18.97;52.96;101489.28;5072076;28;20060;-81
2022/08/13 00:09:58;;;;;;;5.80;3.20;;;;;;;18.91;52.83;101486.63;5071617;28;20048;-81
2022/08/13 00:15:20;;;;;;;7.15;3.25;;;;;;;18.81;52.61;101481.38;5073344;28;20058;-80
2022/08/13 00:17:51;;;;;;;5.57;3.50;;;;;;;18.71;53.98;101484.25;5073027;28;20116;-82
2022/08/13 00:20:23;;;;;;;7.60;3.43;;;;;;;18.67;52.93;101483.25;5072583;28;20101;-81
2022/08/13 00:22:49;;;;;;;5.23;3.43;;;;;;;18.68;54.26;101491.09;5071941;28;20608;-81
2022/08/13 00:25:16;;;;;;;8.60;3.53;;;;;;;18.65;54.37;101482.72;5055287;28;20039;-80
2022/08/13 00:27:47;;;;;;;4.45;3.38;;;;;;;18.59;53.38;101487.44;5070754;28;20375;-81
2022/08/13 00:30:15;;;;;;;6.25;3.72;;;;;;;18.56;53.73;101486.13;5071704;28;20170;-81
2022/08/13 00:32:42;;;;;;;5.23;3.57;;;;;;;18.54;53.56;101480.19;5072841;28;20060;-81
2022/08/13 00:35:09;;;;;;;5.90;3.37;;;;;;;18.51;53.54;101488.91;5072983;28;20291;-81
2022/08/13 00:37:37;;;;;;;6.75;3.65;;;;;;;18.39;53.72;101483.16;5072865;28;20017;-81
2022/08/13 00:40:06;;;;;;;4.38;3.60;;;;;;;18.37;54.04;101490.78;5070265;28;20055;-81
2022/08/13 00:42:32;;;;;;;5.60;3.63;;;;;;;18.36;53.91;101489.16;5072619;28;20361;-81
2022/08/13 00:44:58;;;;;;;5.07;3.50;;;;;;;18.34;53.76;101491.34;5072741;28;20042;-81
2022/08/13 00:50:13;;;;;;;4.95;3.72;;;;;;;18.17;53.91;101488.06;5062200;28;20040;-81
2022/08/13 00:52:40;;;;;;;9.40;3.80;;;;;;;18.17;54.27;101490.75;5072326;28;20108;-81
2022/08/13 00:55:10;;;;;;;10.23;4.10;;;;;;;18.09;54.50;101487.91;5071498;28;20287;-81
2022/08/13 00:57:36;;;;;;;6.65;3.63;;;;;;;18.01;54.72;101494.78;5071276;28;20115;-81
2022/08/13 01:00:11;;;;;;;5.90;3.90;;;;;;;17.90;54.72;101494.09;5071604;28;20052;-81
2022/08/13 01:02:37;;;;;;;5.03;3.58;;;;;;;17.91;54.87;101493.00;5071966;28;20021;-81
2022/08/13 01:05:03;;;;;;;5.80;3.60;;;;;;;17.92;54.26;101499.25;5072275;28;20537;-81
2022/08/13 01:07:30;;;;;;;7.13;3.90;;;;;;;17.91;54.48;101505.75;5072517;28;20063;-81
2022/08/13 01:09:56;;;;;;;5.00;4.13;;;;;;;17.88;54.59;101500.91;5070365;28;20036;-81
2022/08/13 01:12:23;;;;;;;6.85;4.07;;;;;;;17.84;55.34;101496.06;5069382;28;20107;-81
2022/08/13 01:14:53;;;;;;;6.68;4.15;;;;;;;17.80;55.04;101495.03;5071869;28;20053;-81
2022/08/13 01:17:22;;;;;;;7.00;3.95;;;;;;;17.81;55.18;101487.72;5072052;28;20034;-81
2022/08/13 01:19:56;;;;;;;7.17;3.60;;;;;;;17.74;55.68;101489.97;5070700;28;20107;-81
2022/08/13 01:22:24;;;;;;;5.97;3.83;;;;;;;17.66;55.61;101484.09;5071546;28;20313;-81
2022/08/13 01:24:50;;;;;;;6.90;3.60;;;;;;;17.64;55.45;101494.44;5071040;28;20052;-81
2022/08/13 01:27:18;;;;;;;4.63;3.63;;;;;;;17.59;55.50;101499.91;5071878;28;20082;-81
2022/08/13 01:29:46;;;;;;;8.63;3.95;;;;;;;17.54;56.44;101498.06;5068799;28;20102;-81
2022/08/13 01:32:15;;;;;;;8.82;3.72;;;;;;;17.53;56.04;101498.34;5070507;28;20040;-81
2022/08/13 01:34:45;;;;;;;6.05;3.25;;;;;;;17.43;56.73;101496.56;5071837;28;20028;-81
2022/08/13 01:37:20;;;;;;;8.40;3.97;;;;;;;17.44;56.78;101497.38;5071777;28;20021;-81
2022/08/13 01:39:45;;;;;;;7.93;3.85;;;;;;;17.35;57.29;101495.28;5071194;28;20039;-81
2022/08/13 01:42:20;;;;;;;4.93;3.47;;;;;;;17.35;57.09;101492.56;5071073;28;20029;-81
2022/08/13 01:44:47;;;;;;;4.30;3.90;;;;;;;17.34;56.89;101496.41;5071352;28;20028;-81
2022/08/13 01:52:41;;;;;;;6.57;3.83;;;;;;;17.21;57.45;101486.22;5070342;28;20082;-81
2022/08/13 01:55:07;;;;;;;9.63;3.97;;;;;;;17.11;58.12;101481.72;5071264;28;20370;-81
2022/08/13 01:57:36;;;;;;;5.45;3.30;;;;;;;17.16;57.87;101486.31;5071097;28;20107;-81
2022/08/13 02:00:05;;;;;;;7.18;3.97;;;;;;;17.12;58.31;101486.03;5070593;28;20055;-80
2022/08/13 02:02:30;;;;;;;7.05;3.90;;;;;;;17.05;58.52;101483.69;5069638;28;20020;-80
2022/08/13 02:04:56;;;;;;;5.50;4.20;;;;;;;16.99;58.79;101484.81;5070204;28;20023;-81
2022/08/13 02:07:21;;;;;;;10.17;4.23;;;;;;;16.98;58.44;101485.09;5070788;28;20507;-81
2022/08/13 02:09:46;;;;;;;7.70;4.28;;;;;;;16.95;58.80;101489.19;5050799;28;20063;-81
2022/08/13 02:12:15;;;;;;;8.47;4.27;;;;;;;16.86;58.99;101488.16;5050736;28;20037;-81
2022/08/13 02:14:42;;;;;;;6.10;4.60;;;;;;;16.79;59.81;101486.59;5056970;28;20050;-81
2022/08/13 02:17:27;;;;;;;7.15;4.28;;;;;;;16.75;59.74;101480.13;5070378;28;20035;-81
2022/08/13 02:19:56;;;;;;;6.53;4.32;;;;;;;16.72;60.40;101488.81;5058380;28;20029;-81
2022/08/13 02:22:23;;;;;;;7.30;4.50;;;;;;;16.70;60.40;101485.59;5070816;28;20033;-81
2022/08/13 02:24:52;;;;;;;9.80;4.20;;;;;;;16.67;60.32;101493.47;5071116;28;20274;-81
2022/08/13 02:27:18;;;;;;;7.53;4.50;;;;;;;16.65;59.66;101491.03;5070617;28;20095;-81
2022/08/13 02:29:44;;;;;;;6.05;4.53;;;;;;;16.60;59.81;101491.88;5069641;28;20072;-81
2022/08/13 02:32:10;;;;;;;5.20;4.15;;;;;;;16.54;59.94;101489.50;5069666;28;20029;-81
2022/08/13 02:34:36;;;;;;;4.70;4.30;;;;;;;16.49;60.46;101483.03;5069985;28;20065;-80
2022/08/13 02:37:01;;;;;;;10.50;4.53;;;;;;;16.48;59.87;101483.31;5070641;28;20028;-81
2022/08/13 02:39:27;;;;;;;7.18;4.45;;;;;;;16.45;60.21;101478.47;5070282;28;20115;-81
2022/08/13 02:41:54;;;;;;;5.83;4.27;;;;;;;16.46;60.20;101496.31;5070208;28;20531;-81
2022/08/13 02:44:20;;;;;;;9.63;4.00;;;;;;;16.43;60.18;101492.25;5070537;28;20020;-81
2022/08/13 02:46:49;;;;;;;6.20;4.32;;;;;;;16.39;60.14;101491.22;5069205;28;20032;-81
2022/08/13 02:49:17;;;;;;;9.57;4.80;;;;;;;16.32;60.82;101491.56;5068245;28;20037;-81
2022/08/13 02:51:43;;;;;;;5.95;4.63;;;;;;;16.29;60.93;101486.69;5068787;28;20025;-81
2022/08/13 02:54:09;;;;;;;4.93;4.30;;;;;;;16.26;60.55;101489.97;5070598;28;20536;-81
2022/08/13 02:56:36;;;;;;;9.23;5.10;;;;;;;16.16;61.57;101493.53;5070354;28;20029;-81
2022/08/13 02:59:03;;;;;;;8.85;4.60;;;;;;;16.16;61.74;101488.13;5070161;28;20037;-81
2022/08/13 03:01:34;;;;;;;7.53;4.65;;;;;;;16.10;62.34;101488.44;5068675;28;20166;-81
2022/08/13 03:03:59;;;;;;;9.80;4.47;;;;;;;16.03;61.61;101496.84;5050383;28;20078;-80
2022/08/13 03:06:25;;;;;;;6.13;4.50;;;;;;;15.99;62.58;101491.19;5064529;28;20545;-81
2022/08/13 03:08:52;;;;;;;6.25;4.80;;;;;;;15.96;61.84;101488.22;5069059;28;20032;-81
2022/08/13 03:11:19;;;;;;;7.18;4.63;;;;;;;15.90;61.83;101490.94;5069931;28;20027;-81
2022/08/13 03:13:55;;;;;;;9.35;4.55;;;;;;;15.88;61.75;101490.44;5070298;28;20025;-81
2022/08/13 03:16:25;;;;;;;9.00;4.88;;;;;;;15.86;61.96;101489.91;5068968;28;20427;-81
2022/08/13 03:18:53;;;;;;;6.13;4.90;;;;;;;15.86;62.54;101492.63;5068676;28;20032;-81
2022/08/13 03:21:19;;;;;;;6.40;4.77;;;;;;;15.77;62.66;101491.53;5069479;28;20275;-81
2022/08/13 03:23:46;;;;;;;7.05;4.38;;;;;;;15.79;62.85;101489.34;5052520;28;20040;-81
2022/08/13 03:26:11;;;;;;;7.68;4.63;;;;;;;15.74;62.83;101486.66;5070177;28;20047;-81
2022/08/13 03:28:38;;;;;;;4.93;4.53;;;;;;;15.76;62.31;101487.22;5068770;28;20484;-81
2022/08/13 03:31:05;;;;;;;9.33;4.83;;;;;;;15.71;63.11;101481.81;5069466;28;20033;-81
2022/08/13 03:33:31;;;;;;;6.07;4.68;;;;;;;15.70;62.50;101489.13;5070048;28;20103;-81
2022/08/13 03:35:57;;;;;;;5.95;4.85;;;;;;;15.69;62.51;101490.22;5069382;28;20021;-81
2022/08/13 03:38:23;;;;;;;7.35;5.10;;;;;;;15.67;63.23;101491.59;5069719;28;20032;-81
2022/08/13 03:41:00;;;;;;;7.33;5.07;;;;;;;15.55;63.23;101484.56;5069336;28;20112;-81
2022/08/13 03:43:26;;;;;;;6.25;4.97;;;;;;;15.56;63.02;101494.28;5069025;28;20809;-81
2022/08/13 03:45:54;;;;;;;11.27;5.25;;;;;;;15.52;63.56;101490.53;5070034;28;20468;-81
2022/08/13 03:48:20;;;;;;;8.35;5.03;;;;;;;15.52;63.67;101489.72;5069920;28;20087;-81
2022/08/13 03:50:47;;;;;;;7.25;5.35;;;;;;;15.51;63.66;101488.94;5069270;28;20103;-81
2022/08/13 03:53:15;;;;;;;7.70;5.13;;;;;;;15.45;64.08;101493.53;5069370;28;20115;-81
2022/08/13 03:55:42;;;;;;;6.05;5.13;;;;;;;15.37;63.54;101487.88;5070062;28;20059;-81
2022/08/13 03:58:08;;;;;;;7.97;5.17;;;;;;;15.38;64.26;101484.09;5069236;28;20119;-81
2022/08/13 04:00:36;;;;;;;10.40;5.10;;;;;;;15.40;63.74;101490.84;5069290;28;20314;-80
2022/08/13 04:03:16;;;;;;;6.55;5.10;;;;;;;15.37;63.54;101494.09;5070440;28;20447;-80
2022/08/13 04:05:41;;;;;;;5.70;5.18;;;;;;;15.29;64.79;101479.28;5073537;28;20020;-81
2022/08/13 04:08:06;;;;;;;6.45;4.82;;;;;;;15.25;64.55;101480.88;5071812;28;20103;-80
2022/08/13 04:10:33;;;;;;;6.27;5.10;;;;;;;15.22;64.61;101491.44;5071461;28;20059;-81
2022/08/13 04:12:59;;;;;;;10.52;5.03;;;;;;;15.19;64.67;101481.19;5073322;28;20028;-81
2022/08/13 04:15:24;;;;;;;6.77;5.60;;;;;;;15.14;64.72;101479.31;5073492;28;20025;-81
2022/08/13 04:17:49;;;;;;;6.87;5.03;;;;;;;15.17;64.98;101480.63;5072972;28;20024;-81
2022/08/13 04:20:19;;;;;;;8.00;5.40;;;;;;;15.14;65.70;101485.50;5072693;28;20111;-81
2022/08/13 04:22:44;;;;;;;7.55;5.72;;;;;;;15.12;65.45;101484.97;5072472;28;20025;-81
2022/08/13 04:25:12;;;;;;;6.93;5.40;;;;;;;15.09;65.66;101490.09;5072019;28;20061;-81
2022/08/13 04:27:38;;;;;;;6.43;5.57;;;;;;;15.03;65.44;101485.78;5072095;28;20472;-81
2022/08/13 04:30:04;;;;;;;12.27;5.47;;;;;;;15.06;65.20;101493.34;5071467;28;20047;-81
2022/08/13 04:32:39;;;;;;;6.70;5.28;;;;;;;15.07;64.71;101495.75;5072618;28;20028;-81
2022/08/13 04:35:05;;;;;;;8.95;5.38;;;;;;;15.04;65.31;101490.09;5072855;28;20016;-81
2022/08/13 04:37:31;;;;;;;10.02;5.50;;;;;;;15.05;65.20;101497.13;5072812;28;20036;-81
2022/08/13 04:39:57;;;;;;;7.03;5.63;;;;;;;15.08;65.51;101500.06;5070505;28;20484;-80
2022/08/13 04:42:22;;;;;;;7.50;5.20;;;;;;;15.11;65.55;101494.13;5070616;28;20027;-81
2022/08/13 04:44:48;;;;;;;11.30;6.07;;;;;;;15.07;65.56;101497.66;5072826;28;20033;-80
2022/08/13 04:47:13;;;;;;;9.07;5.30;;;;;;;15.07;65.86;101492.25;5072735;28;20333;-81
2022/08/13 04:49:39;;;;;;;7.53;5.80;;;;;;;15.11;65.33;101498.75;5072530;28;20032;-81
2022/08/13 04:52:04;;;;;;;8.87;5.10;;;;;;;15.15;65.13;101505.22;5071859;28;20033;-81
2022/08/13 04:54:30;;;;;;;6.97;5.85;;;;;;;15.14;65.30;101499.00;5072385;28;20024;-81
2022/08/13 04:56:55;;;;;;;9.70;5.80;;;;;;;15.23;65.59;101510.03;5070927;28;20028;-81
2022/08/13 04:59:22;;;;;;;15.60;5.80;;;;;;;15.26;66.22;101509.50;5068071;28;20029;-81
2022/08/13 05:01:47;;;;;;;10.67;6.00;;;;;;;15.19;65.92;101495.47;5051444;28;20986;-81
2022/08/13 05:04:13;;;;;;;7.80;5.57;;;;;;;15.29;65.49;101508.97;5052291;28;20031;-81
2022/08/13 05:06:38;;;;;;;9.37;5.53;;;;;;;15.32;65.59;101507.59;5052190;28;20039;-82
2022/08/13 05:09:03;;;;;;;13.90;5.80;;;;;;;15.29;65.74;101495.47;5064068;28;20487;-81
2022/08/13 05:11:29;;;;;;;8.10;5.07;;;;;;;15.37;65.86;101507.59;5070654;28;20059;-81
2022/08/13 05:13:54;;;;;;;10.87;5.87;;;;;;;15.40;66.24;101508.94;5065365;28;20487;-81
2022/08/13 05:16:20;;;;;;;7.93;5.43;;;;;;;15.43;66.95;101511.88;5070004;28;20035;-81
2022/08/13 05:18:54;;;;;;;9.55;5.50;;;;;;;15.43;66.17;101497.59;5072311;28;20341;-82
2022/08/13 05:21:22;;;;;;;9.53;5.70;;;;;;;15.56;65.63;101512.41;5070630;28;20032;-82
2022/08/13 05:23:55;;;;;;;11.00;6.00;;;;;;;15.59;65.80;101509.16;5071407;28;20769;-83
2022/08/13 05:26:23;;;;;;;17.33;6.28;;;;;;;15.66;65.79;101511.56;5071828;28;20028;-82
2022/08/13 05:28:50;;;;;;;11.07;6.00;;;;;;;16.04;64.50;101506.59;5071535;28;20056;-82
2022/08/13 05:31:19;;;;;;;9.73;5.60;;;;;;;16.66;62.93;101514.28;5070210;28;20028;-78
2022/08/13 05:33:45;;;;;;;7.75;5.32;;;;;;;17.08;61.68;101517.47;5070583;28;20021;-78
2022/08/13 05:36:11;;;;;;;13.18;5.60;;;;;;;17.43;60.82;101523.66;5070631;28;20024;-78
2022/08/13 05:38:39;;;;;;;9.60;5.47;;;;;;;17.62;59.93;101518.28;5071796;28;20380;-79
2022/08/13 05:41:07;;;;;;;11.57;5.80;;;;;;;17.69;59.17;101526.91;5069012;28;20032;-79
2022/08/13 05:43:36;;;;;;;12.50;5.07;;;;;;;17.68;59.67;101516.31;5071238;28;20024;-79
2022/08/13 05:46:05;;;;;;;9.57;5.97;;;;;;;17.67;59.15;101512.00;5071255;28;20669;-79
2022/08/13 05:48:33;;;;;;;11.95;5.45;;;;;;;17.63;59.50;101511.78;5056754;28;20028;-79
2022/08/13 05:51:01;;;;;;;8.18;5.35;;;;;;;17.65;59.88;101512.31;5070740;28;20063;-79
2022/08/13 05:53:28;;;;;;;10.70;5.10;;;;;;;17.62;59.95;101515.59;5071051;28;20055;-79
2022/08/13 05:55:54;;;;;;;8.20;5.30;;;;;;;17.61;60.17;101526.72;5071371;28;20435;-79
2022/08/13 05:58:20;;;;;;;7.85;4.95;;;;;;;17.62;59.44;101522.91;5070819;28;20024;-79
2022/08/13 06:03:31;;;;;;;10.17;5.23;;;;;;;17.68;59.93;101519.03;5067279;28;20753;-79
2022/08/13 06:06:08;;;;;;;12.20;5.37;;;;;;;17.75;59.42;101518.69;5069217;28;20303;-78
2022/08/13 06:08:37;;;;;;;9.73;5.43;;;;;;;17.85;59.69;101518.56;5069871;28;20060;-79
2022/08/13 06:11:06;;;;;;;13.40;5.53;;;;;;;17.95;59.85;101517.63;5068352;28;20059;-79
2022/08/13 06:13:33;;;;;;;11.25;5.45;;;;;;;18.04;59.72;101526.75;5070996;28;20035;-79
2022/08/13 06:16:00;;;;;;;9.10;5.65;;;;;;;18.11;59.66;101516.38;5069351;28;20044;-80
2022/08/13 06:18:33;;;;;;;11.95;5.10;;;;;;;18.20;59.49;101516.50;5044932;28;20035;-79
2022/08/13 06:21:02;;;;;;;12.95;5.45;;;;;;;18.27;60.02;101513.44;5050430;28;20032;-79
2022/08/13 06:23:29;;;;;;;9.45;5.38;;;;;;;18.36;59.59;101521.72;5050946;28;20029;-79
2022/08/13 06:25:56;;;;;;;12.55;5.97;;;;;;;18.52;59.09;101525.81;5062866;28;20541;-80
2022/08/13 06:28:27;;;;;;;9.40;5.20;;;;;;;18.62;58.09;101517.50;5069619;28;20033;-78
2022/08/13 06:31:00;;;;;;;11.03;5.07;;;;;;;18.76;58.56;101519.47;5069260;28;20279;-78
2022/08/13 06:33:27;;;;;;;9.27;5.40;;;;;;;18.87;57.88;101520.91;5067778;28;20389;-78
2022/08/13 06:35:55;;;;;;;7.80;5.20;;;;;;;19.05;56.47;101518.47;5069731;28;20036;-78
2022/08/13 06:38:25;;;;;;;8.68;5.05;;;;;;;19.21;56.82;101524.44;5069803;28;20546;-79
2022/08/13 06:40:55;;;;;;;13.10;5.05;;;;;;;19.36;56.32;101528.75;5068424;28;20020;-79
2022/08/13 06:43:21;;;;;;;10.15;4.88;;;;;;;19.47;56.30;101515.78;5069542;28;20115;-78
2022/08/13 06:45:47;;;;;;;6.70;4.13;;;;;;;19.59;55.75;101524.28;5068857;28;20024;-78
2022/08/13 06:48:14;;;;;;;9.65;4.78;;;;;;;19.74;54.35;101525.06;5067694;28;20086;-79
2022/08/13 06:50:40;;;;;;;5.33;4.50;;;;;;;19.87;54.27;101524.28;5067798;28;20119;-79
2022/08/13 06:53:06;;;;;;;10.23;4.55;;;;;;;20.03;54.27;101522.03;5065820;28;20179;-80
2022/08/13 06:55:36;;;;;;;9.23;4.70;;;;;;;20.15;53.90;101515.25;5067038;28;20572;-78
2022/08/13 06:58:11;;;;;;;5.95;4.68;;;;;;;20.31;52.86;101529.31;5067357;28;20063;-78
2022/08/13 07:00:39;;;;;;;5.60;4.40;;;;;;;20.47;52.77;101527.84;5068776;28;20024;-79
2022/08/13 07:03:09;;;;;;;5.93;4.53;;;;;;;20.58;52.26;101531.13;5064414;28;20027;-78
2022/08/13 07:05:41;;;;;;;9.65;4.95;;;;;;;20.72;51.95;101531.88;5067269;28;20040;-78
2022/08/13 07:08:08;;;;;;;8.40;5.47;;;;;;;20.85;51.49;101527.50;5067648;28;20030;-78
2022/08/13 07:10:35;;;;;;;9.73;5.03;;;;;;;20.92;51.19;101528.97;5068822;28;20286;-78
2022/08/13 07:13:02;;;;;;;10.40;5.32;;;;;;;20.97;50.71;101535.13;5055354;28;20024;-78
2022/08/13 07:15:29;;;;;;;12.48;4.97;;;;;;;21.10;50.53;101540.78;5067757;28;20082;-79
2022/08/13 07:17:56;;;;;;;9.82;5.00;;;;;;;21.16;50.56;101534.09;5068168;28;20108;-79
2022/08/13 07:20:22;;;;;;;14.57;4.72;;;;;;;21.28;50.13;101536.22;5068872;28;20021;-78
2022/08/13 07:22:47;;;;;;;12.88;5.00;;;;;;;21.33;50.37;101531.44;5068077;28;20031;-81
2022/08/13 07:25:13;;;;;;;11.50;4.60;;;;;;;21.45;49.94;101530.03;5068584;28;20033;-78
2022/08/13 07:27:40;;;;;;;8.10;4.65;;;;;;;21.63;49.36;101539.13;5067056;28;20066;-80
2022/08/13 07:30:06;;;;;;;9.18;4.70;;;;;;;21.72;49.42;101536.44;5068478;28;20039;-78
2022/08/13 07:32:38;;;;;;;19.30;4.30;;;;;;;21.88;49.29;101536.78;5067687;28;20111;-80
2022/08/13 07:35:08;;;;;;;8.97;4.50;;;;;;;21.98;48.17;101532.94;5068771;28;20315;-79
2022/08/13 07:37:35;;;;;;;15.10;3.97;;;;;;;22.10;48.59;101533.09;5070999;28;20031;-80
2022/08/13 07:40:02;;;;;;;21.55;4.53;;;;;;;22.15;48.56;101532.16;5033051;28;20037;-80
2022/08/13 07:42:28;;;;;;;10.40;4.03;;;;;;;22.29;47.94;101541.00;5055080;28;20079;-81
2022/08/13 07:44:54;;;;;;;8.15;4.13;;;;;;;22.38;48.03;101541.00;5072578;28;20074;-79
2022/08/13 07:47:23;;;;;;;10.67;3.83;;;;;;;22.58;48.24;101544.25;5073171;28;20017;-79
2022/08/13 07:49:50;;;;;;;14.07;3.28;;;;;;;22.74;46.35;101545.34;5069682;28;20104;-79
2022/08/13 07:52:15;;;;;;;7.90;2.90;;;;;;;22.88;45.84;101541.63;5053846;28;20033;-79
2022/08/13 07:54:46;;;;;;;16.67;2.75;;;;;;;23.01;46.12;101537.88;5073090;28;20032;-79
2022/08/13 07:57:11;;;;;;;6.20;3.20;;;;;;;23.14;44.33;101553.28;5054639;28;20029;-79
2022/08/13 07:59:40;;;;;;;12.95;3.00;;;;;;;23.33;43.95;101548.59;5072970;28;20055;-79
2022/08/13 08:02:11;;;;;;;6.93;3.07;;;;;;;23.36;43.56;101540.56;5071985;28;20348;-80
2022/08/13 08:04:37;;;;;;;11.10;3.40;;;;;;;23.47;44.07;101538.22;5072806;28;20281;-80
2022/08/13 08:07:03;;;;;;;8.02;2.85;;;;;;;23.52;43.42;101535.31;5071129;28;20028;-80
2022/08/13 08:09:34;;;;;;;10.40;2.58;;;;;;;23.66;43.29;101545.22;5071534;28;20036;-79
2022/08/13 08:14:49;;;;;;;29.98;3.17;;;;;;;24.02;40.90;101533.75;5069746;28;20086;-80
2022/08/13 08:17:14;;;;;;;17.27;2.43;;;;;;;24.10;41.29;101534.84;5072478;28;20052;-81
2022/08/13 08:19:41;;;;;;;11.03;2.37;;;;;;;24.31;40.62;101537.56;5072432;28;20711;-80
2022/08/13 08:22:07;;;;;;;8.63;2.10;;;;;;;24.48;39.56;101541.28;5069638;28;20070;-81
2022/08/13 08:24:34;;;;;;;7.07;2.20;;;;;;;24.60;40.34;101544.09;5071371;28;20031;-83
2022/08/13 08:27:01;;;;;;;14.53;3.00;;;;;;;24.68;40.00;101545.13;5072445;28;20290;-85
2022/08/13 08:29:28;;;;;;;5.88;2.10;;;;;;;24.83;38.86;101546.47;5072371;28;20099;-83
2022/08/13 08:31:54;;;;;;;2.78;2.42;;;;;;;24.90;38.14;101540.44;5070466;28;20028;-87
2022/08/13 08:34:20;;;;;;;3.58;2.13;;;;;;;25.05;37.94;101537.03;5070506;28;20085;-86
2022/08/13 08:36:45;;;;;;;8.63;1.80;;;;;;;25.29;38.27;101540.16;5070906;28;20487;-88
2022/08/13 08:44:42;;;;;;;5.37;2.77;;;;;;;25.74;38.59;101550.25;5072383;28;20800;-86
2022/08/13 08:47:08;;;;;;;4.28;2.30;;;;;;;25.79;37.98;101546.47;5071462;28;20024;-86
2022/08/13 08:49:35;;;;;;;4.43;2.58;;;;;;;25.90;38.26;101546.78;5071155;28;20043;-87
2022/08/13 08:52:01;;;;;;;8.07;2.63;;;;;;;25.98;37.54;101543.09;5070929;28;20035;-85
2022/08/13 08:54:28;;;;;;;6.53;2.37;;;;;;;26.07;37.26;101545.72;5069281;28;20028;-84
2022/08/13 08:56:55;;;;;;;4.57;2.60;;;;;;;26.23;36.55;101543.06;5053399;28;20340;-86
2022/08/13 08:59:28;;;;;;;4.70;1.90;;;;;;;26.42;36.34;101543.25;5071602;28;20095;-86
2022/08/13 09:01:55;;;;;;;4.68;2.50;;;;;;;26.46;35.30;101537.84;5070498;28;20510;-86
2022/08/13 09:04:25;;;;;;;5.93;2.13;;;;;;;26.46;34.87;101540.56;5071106;28;20040;-85
2022/08/13 09:06:52;;;;;;;2.25;2.05;;;;;;;26.68;35.02;101544.69;5071391;28;20103;-84
2022/08/13 09:09:19;;;;;;;6.80;2.10;;;;;;;26.78;35.47;101539.88;5069564;28;20029;-84
2022/08/13 09:11:50;;;;;;;6.43;2.10;;;;;;;26.98;35.23;101549.03;5053212;28;20032;-84
2022/08/13 09:14:18;;;;;;;6.47;2.30;;;;;;;27.05;35.25;101532.72;5071047;28;20041;-86
2022/08/13 09:16:43;;;;;;;5.30;2.28;;;;;;;27.22;34.32;101531.56;5071327;28;20043;-87
2022/08/13 09:19:12;;;;;;;5.80;2.33;;;;;;;27.41;34.45;101538.28;5071372;28;20036;-85
2022/08/13 09:21:48;;;;;;;5.47;2.33;;;;;;;27.46;35.20;101536.13;5070786;28;20077;-83
2022/08/13 09:24:15;;;;;;;10.05;2.60;;;;;;;27.55;33.99;101537.88;5071020;28;20032;-83
2022/08/13 09:26:45;;;;;;;4.45;2.22;;;;;;;27.60;34.01;101530.13;5052798;28;20032;-83
2022/08/13 09:29:14;;;;;;;10.82;2.60;;;;;;;27.73;33.45;101535.53;5069756;28;20634;-85
2022/08/13 09:31:44;;;;;;;8.30;2.00;;;;;;;27.92;33.42;101537.50;5069840;28;20025;-85
2022/08/13 09:34:10;;;;;;;2.92;2.30;;;;;;;27.96;33.87;101533.66;5070735;28;20070;-85
2022/08/13 09:36:37;;;;;;;6.10;1.80;;;;;;;28.01;32.34;101531.81;5071176;28;20498;-85
2022/08/13 09:39:03;;;;;;;3.43;2.17;;;;;;;28.19;34.13;101543.22;5070813;28;20835;-85
2022/08/13 09:41:35;;;;;;;4.55;2.20;;;;;;;28.33;33.46;101526.16;5070488;28;20025;-84
2022/08/13 09:44:01;;;;;;;2.70;2.30;;;;;;;28.42;33.10;101522.03;5050723;28;20067;-86
2022/08/13 09:46:27;;;;;;;5.40;2.20;;;;;;;28.64;32.50;101524.41;5071026;28;20107;-86
2022/08/13 09:48:55;;;;;;;4.90;2.35;;;;;;;28.67;32.13;101524.47;5052617;28;20039;-86
2022/08/13 09:51:22;;;;;;;16.55;2.50;;;;;;;28.85;31.50;101524.81;5051736;28;20120;-85
2022/08/13 09:53:47;;;;;;;5.65;2.63;;;;;;;28.95;31.34;101517.09;5052145;28;20564;-85
2022/08/13 09:56:17;;;;;;;3.27;2.00;;;;;;;29.02;31.37;101511.72;5070746;28;20033;-85
2022/08/13 09:58:49;;;;;;;2.85;1.98;;;;;;;29.13;31.17;101512.66;5070279;28;20163;-86
2022/08/13 10:01:14;;;;;;;6.45;1.90;;;;;;;29.34;29.70;101516.13;5067491;28;20471;-84
2022/08/13 10:03:42;;;;;;;2.33;1.73;;;;;;;29.48;29.83;101510.06;5070572;28;20033;-85
2022/08/13 10:06:09;;;;;;;3.83;1.73;;;;;;;29.65;29.93;101508.72;5070100;28;20467;-84
2022/08/13 10:08:34;;;;;;;4.38;1.80;;;;;;;29.83;30.04;101504.25;5070327;28;20040;-84
2022/08/13 10:11:01;;;;;;;2.85;2.00;;;;;;;29.88;29.13;101501.13;5069253;28;20387;-84
2022/08/13 10:13:26;;;;;;;4.47;2.10;;;;;;;29.97;28.22;101498.09;5070113;28;20432;-85
2022/08/13 10:15:51;;;;;;;4.60;1.83;;;;;;;29.98;28.46;101494.19;5069134;28;20325;-85
2022/08/13 10:18:17;;;;;;;4.80;1.97;;;;;;;30.05;28.64;101491.50;5070309;28;20026;-85
2022/08/13 10:20:45;;;;;;;2.47;2.08;;;;;;;30.20;29.35;101497.19;5069642;28;20035;-84
2022/08/13 10:23:13;;;;;;;4.63;1.80;;;;;;;30.31;28.08;101494.56;5070338;28;20093;-85
2022/08/13 10:25:39;;;;;;;2.33;1.88;;;;;;;30.33;27.49;101484.69;5070280;28;20475;-87
2022/08/13 10:28:17;;;;;;;6.95;2.20;;;;;;;30.69;28.33;101494.53;5068801;28;20020;-87
2022/08/13 10:30:42;;;;;;;3.53;2.20;;;;;;;30.73;27.58;101484.31;5069871;28;20062;-88
2022/08/13 10:33:08;;;;;;;3.87;1.80;;;;;;;30.79;26.42;101491.09;5069270;28;20028;-87
2022/08/13 10:35:33;;;;;;;6.70;1.63;;;;;;;30.70;24.59;101476.78;5070464;28;20696;-85
2022/08/13 10:38:00;;;;;;;6.13;1.70;;;;;;;30.69;24.70;101480.72;5070019;28;20549;-86
2022/08/13 10:40:26;;;;;;;4.30;1.60;;;;;;;30.78;25.18;101486.75;5069831;28;20054;-86
2022/08/13 10:42:52;;;;;;;2.20;2.00;;;;;;;31.04;26.23;101490.50;5068761;28;20456;-86
2022/08/13 10:45:20;;;;;;;3.85;1.75;;;;;;;31.05;25.63;101492.06;5069267;28;20038;-86
2022/08/13 10:47:48;;;;;;;3.47;2.15;;;;;;;31.05;24.76;101489.31;5069892;28;20582;-86
2022/08/13 10:50:15;;;;;;;4.97;1.50;;;;;;;31.22;24.69;101487.88;5069265;28;20070;-86
2022/08/13 10:52:41;;;;;;;1.73;1.60;;;;;;;31.25;24.99;101493.44;5070122;28;20504;-86
2022/08/13 10:55:09;;;;;;;3.05;1.58;;;;;;;31.35;25.99;101474.53;5070119;28;20029;-86
2022/08/13 10:57:45;;;;;;;2.55;1.70;;;;;;;31.44;24.91;101469.44;5068691;28;20021;-86
2022/08/13 11:00:17;;;;;;;2.15;1.88;;;;;;;31.49;24.89;101477.38;5069473;28;20025;-87
2022/08/13 11:02:45;;;;;;;2.77;1.50;;;;;;;31.71;25.50;101475.53;5068802;28;20120;-86
2022/08/13 11:05:25;;;;;;;2.03;1.50;;;;;;;31.68;24.64;101475.50;5052399;28;20349;-86
2022/08/13 11:07:52;;;;;;;3.05;1.67;;;;;;;31.82;24.41;101478.34;5069422;28;20029;-87
2022/08/13 11:10:20;;;;;;;2.00;1.80;;;;;;;31.91;24.09;101474.44;5069321;28;20476;-87
2022/08/13 11:12:50;;;;;;;1.50;1.40;;;;;;;32.07;23.09;101469.34;5072318;28;20476;-87
2022/08/13 11:15:20;;;;;;;2.40;2.20;;;;;;;32.23;23.57;101480.03;5073860;28;20032;-87
2022/08/13 11:17:47;;;;;;;1.90;1.58;;;;;;;32.24;22.93;101476.09;5073480;28;20016;-87
2022/08/13 11:22:53;;;;;;;2.03;1.50;;;;;;;32.38;22.61;101478.13;5277139;22;20067;-85
2022/08/13 11:25:19;;;;;;;2.90;1.73;;;;;;;32.40;21.95;101467.44;5053627;28;20148;-86
2022/08/13 11:27:45;;;;;;;3.47;1.40;;;;;;;32.20;21.87;101457.88;5053526;28;20044;-86
2022/08/13 11:30:11;;;;;;;3.30;1.57;;;;;;;32.44;22.53;101459.13;5064616;28;20303;-87
2022/08/13 11:32:37;;;;;;;2.72;2.00;;;;;;;32.40;22.17;101445.25;5073102;28;20035;-86
2022/08/13 11:35:04;;;;;;;4.13;2.08;;;;;;;32.44;22.60;101446.06;5073304;28;20147;-88
2022/08/13 11:37:31;;;;;;;2.10;2.00;;;;;;;32.44;22.61;101450.81;5073187;28;20028;-87
2022/08/13 11:39:56;;;;;;;3.45;2.30;;;;;;;32.61;23.18;101438.94;5072561;28;20113;-86
2022/08/13 11:42:22;;;;;;;3.47;1.95;;;;;;;32.86;22.12;101438.16;5073222;28;20047;-86
2022/08/13 11:44:47;;;;;;;3.00;2.10;;;;;;;33.09;22.97;101439.72;5071547;28;20394;-86
2022/08/13 11:47:12;;;;;;;4.13;1.93;;;;;;;33.12;23.09;101438.91;5053840;28;20058;-86
2022/08/13 11:49:37;;;;;;;3.23;2.10;;;;;;;32.92;23.26;101422.69;5072533;28;20028;-86